Time;durP1;ratioP1;P1;durP2;ratioP2;P2;SDS_P1;SDS_P2;PMS_P1;PMS_P2;Temp;Humidity;BMP_temperature;BMP_pressure;BME280_temperature;BME280_humidity;BME280_pressure;Samples;Min_cycle;Max_cycle;Signal;HPM_P1;HPM_P2
2023/10/30 00:00:21;;;;;;;2.05;1.83;;;;;;;;;;5040826;28;20433;-70
2023/10/30 00:02:48;;;;;;;2.70;2.10;;;;;;;;;;5043973;28;20440;-70
2023/10/30 00:05:16;;;;;;;3.97;2.27;;;;;;;;;;5043205;28;20441;-70
2023/10/30 00:07:43;;;;;;;2.00;1.90;;;;;;;;;;5042662;28;20433;-70
2023/10/30 00:10:10;;;;;;;4.20;2.40;;;;;;;;;;5039432;28;20446;-70
2023/10/30 00:12:38;;;;;;;4.05;2.33;;;;;;;;;;5040986;28;20483;-70
2023/10/30 00:15:05;;;;;;;3.55;2.65;;;;;;;;;;5031564;28;20443;-70
2023/10/30 00:17:33;;;;;;;3.10;2.70;;;;;;;;;;5040121;28;20436;-70
2023/10/30 00:20:02;;;;;;;3.97;2.80;;;;;;;;;;5041032;28;20445;-70
2023/10/30 00:22:29;;;;;;;3.15;2.90;;;;;;;;;;5040430;28;20463;-71
2023/10/30 00:24:57;;;;;;;4.57;3.17;;;;;;;;;;5042366;28;20464;-70
2023/10/30 00:27:24;;;;;;;3.60;3.30;;;;;;;;;;5040205;28;20445;-70
2023/10/30 00:29:51;;;;;;;3.60;2.85;;;;;;;;;;5043517;28;20962;-70
2023/10/30 00:32:21;;;;;;;3.65;3.10;;;;;;;;;;5044110;28;20528;-69
2023/10/30 00:34:48;;;;;;;4.43;3.17;;;;;;;;;;5042859;28;20466;-69
2023/10/30 00:37:15;;;;;;;4.10;2.97;;;;;;;;;;5040452;28;20460;-70
2023/10/30 00:39:43;;;;;;;3.40;3.00;;;;;;;;;;5040566;28;21087;-69
2023/10/30 00:42:13;;;;;;;4.07;3.17;;;;;;;;;;5042996;28;20437;-69
2023/10/30 00:44:40;;;;;;;3.85;3.08;;;;;;;;;;5041285;28;20437;-70
2023/10/30 00:47:07;;;;;;;4.13;3.40;;;;;;;;;;5043871;28;20425;-70
2023/10/30 00:49:35;;;;;;;3.33;3.03;;;;;;;;;;5042271;28;20438;-69
2023/10/30 00:52:05;;;;;;;3.30;3.00;;;;;;;;;;5040830;28;20751;-69
2023/10/30 00:54:35;;;;;;;4.32;2.70;;;;;;;;;;5043134;28;20433;-69
2023/10/30 00:57:05;;;;;;;4.05;2.38;;;;;;;;;;5043379;28;20437;-69
2023/10/30 00:59:35;;;;;;;5.25;2.35;;;;;;;;;;5043221;28;20502;-70
2023/10/30 01:02:08;;;;;;;4.82;2.00;;;;;;;;;;5036092;28;20466;-70
2023/10/30 01:04:35;;;;;;;2.30;1.70;;;;;;;;;;5043053;28;20429;-70
2023/10/30 01:07:03;;;;;;;2.72;1.58;;;;;;;;;;5042527;28;20440;-71
2023/10/30 01:09:30;;;;;;;3.47;1.30;;;;;;;;;;5038136;28;20431;-70
2023/10/30 01:11:57;;;;;;;2.88;1.00;;;;;;;;;;5041190;28;20443;-70
2023/10/30 01:14:25;;;;;;;3.08;1.20;;;;;;;;;;5041695;28;20429;-70
2023/10/30 01:16:52;;;;;;;2.67;1.15;;;;;;;;;;5040368;28;20502;-70
2023/10/30 01:19:22;;;;;;;3.05;1.40;;;;;;;;;;5037712;28;20441;-70
2023/10/30 01:21:49;;;;;;;3.20;1.05;;;;;;;;;;5040146;28;20508;-69
2023/10/30 01:24:17;;;;;;;0.90;0.90;;;;;;;;;;5042322;28;20421;-70
2023/10/30 01:26:44;;;;;;;1.95;0.90;;;;;;;;;;5037975;28;20459;-70
2023/10/30 01:29:11;;;;;;;5.15;1.05;;;;;;;;;;5042127;28;20826;-70
2023/10/30 01:31:41;;;;;;;3.65;1.08;;;;;;;;;;5045497;28;20860;-70
2023/10/30 01:34:08;;;;;;;2.28;1.00;;;;;;;;;;5044748;28;20929;-71
2023/10/30 01:36:36;;;;;;;1.75;1.00;;;;;;;;;;5048636;28;21072;-71
2023/10/30 01:39:05;;;;;;;2.90;1.10;;;;;;;;;;5036995;28;20439;-71
2023/10/30 01:41:32;;;;;;;1.70;1.10;;;;;;;;;;5044208;28;20974;-70
2023/10/30 01:43:59;;;;;;;2.70;1.30;;;;;;;;;;5042803;28;20440;-70
2023/10/30 01:46:29;;;;;;;2.30;1.30;;;;;;;;;;5046238;28;20475;-70
2023/10/30 01:48:57;;;;;;;3.20;1.30;;;;;;;;;;5043633;28;20429;-69
2023/10/30 01:51:24;;;;;;;2.45;1.23;;;;;;;;;;5045073;28;20461;-70
2023/10/30 01:53:51;;;;;;;2.88;1.10;;;;;;;;;;5049180;28;20495;-69
2023/10/30 01:56:19;;;;;;;3.53;1.13;;;;;;;;;;5040905;28;20975;-70
2023/10/30 01:58:46;;;;;;;3.25;1.08;;;;;;;;;;5045527;28;20473;-70
2023/10/30 02:01:14;;;;;;;2.27;1.03;;;;;;;;;;5036609;28;20439;-71
2023/10/30 02:03:41;;;;;;;3.08;1.05;;;;;;;;;;5045711;28;20963;-70
2023/10/30 02:06:12;;;;;;;2.20;0.93;;;;;;;;;;5039503;28;20466;-70
2023/10/30 02:08:41;;;;;;;1.92;1.00;;;;;;;;;;5043404;28;20436;-69
2023/10/30 02:11:11;;;;;;;1.65;1.00;;;;;;;;;;5045077;28;20467;-70
2023/10/30 02:13:38;;;;;;;0.93;0.90;;;;;;;;;;5045043;28;20424;-70
2023/10/30 02:16:08;;;;;;;1.90;1.00;;;;;;;;;;5041252;28;20464;-70
2023/10/30 02:18:35;;;;;;;2.85;0.95;;;;;;;;;;5045796;28;20425;-70
2023/10/30 02:21:06;;;;;;;1.80;0.90;;;;;;;;;;5045868;28;20437;-69
2023/10/30 02:23:36;;;;;;;2.43;0.90;;;;;;;;;;5047984;28;20432;-70
2023/10/30 02:26:03;;;;;;;4.00;1.00;;;;;;;;;;5045570;28;20437;-69
2023/10/30 02:28:31;;;;;;;1.70;0.80;;;;;;;;;;5040527;28;20431;-70
2023/10/30 02:30:58;;;;;;;2.07;0.90;;;;;;;;;;5042951;28;20433;-70
2023/10/30 02:33:25;;;;;;;2.40;1.00;;;;;;;;;;5043157;28;20922;-69
2023/10/30 02:35:55;;;;;;;3.25;1.10;;;;;;;;;;5046804;28;20425;-69
2023/10/30 02:38:23;;;;;;;3.10;0.95;;;;;;;;;;5044656;28;20475;-69
2023/10/30 02:40:50;;;;;;;2.30;1.10;;;;;;;;;;5043338;28;21017;-69
2023/10/30 02:43:18;;;;;;;2.78;1.20;;;;;;;;;;5040556;28;20524;-69
2023/10/30 02:45:49;;;;;;;2.38;0.98;;;;;;;;;;5040971;28;20505;-69
2023/10/30 02:48:18;;;;;;;3.92;1.63;;;;;;;;;;5041251;28;20430;-70
2023/10/30 02:50:46;;;;;;;1.23;0.80;;;;;;;;;;5045234;28;20447;-70
2023/10/30 02:53:13;;;;;;;5.93;1.10;;;;;;;;;;5040389;28;20463;-69
2023/10/30 02:55:40;;;;;;;1.73;0.93;;;;;;;;;;5042478;28;20511;-70
2023/10/30 02:58:07;;;;;;;3.08;1.13;;;;;;;;;;5042511;28;20453;-69
2023/10/30 03:00:34;;;;;;;1.55;1.20;;;;;;;;;;5042912;28;20503;-69
2023/10/30 03:03:09;;;;;;;3.38;1.50;;;;;;;;;;5047051;28;20891;-69
2023/10/30 03:05:40;;;;;;;2.42;1.70;;;;;;;;;;5042155;28;20480;-70
2023/10/30 03:08:07;;;;;;;3.65;1.77;;;;;;;;;;5040976;28;20971;-69
2023/10/30 03:10:34;;;;;;;2.80;1.60;;;;;;;;;;5042408;28;20530;-69
2023/10/30 03:13:09;;;;;;;2.85;1.60;;;;;;;;;;5042951;28;20444;-69
2023/10/30 03:15:36;;;;;;;4.03;1.73;;;;;;;;;;5045073;28;20954;-69
2023/10/30 03:18:03;;;;;;;3.42;1.60;;;;;;;;;;5035215;28;20522;-69
2023/10/30 03:20:30;;;;;;;3.17;1.50;;;;;;;;;;5044804;28;20776;-69
2023/10/30 03:23:00;;;;;;;1.92;1.30;;;;;;;;;;5043246;28;20893;-69
2023/10/30 03:25:27;;;;;;;1.65;1.00;;;;;;;;;;5042096;28;20439;-69
2023/10/30 03:27:54;;;;;;;2.00;1.20;;;;;;;;;;5041962;28;20429;-69
2023/10/30 03:30:22;;;;;;;3.33;1.33;;;;;;;;;;5044686;28;20519;-70
2023/10/30 03:32:49;;;;;;;2.15;1.15;;;;;;;;;;5042303;28;20431;-70
2023/10/30 03:35:16;;;;;;;1.33;1.07;;;;;;;;;;5042079;28;21053;-70
2023/10/30 03:37:43;;;;;;;2.33;0.83;;;;;;;;;;5043700;28;20433;-70
2023/10/30 03:40:12;;;;;;;2.50;1.20;;;;;;;;;;5045607;28;20437;-70
2023/10/30 03:42:39;;;;;;;3.45;1.00;;;;;;;;;;5044839;28;20433;-70
2023/10/30 03:45:10;;;;;;;2.23;0.90;;;;;;;;;;5040875;28;20429;-70
2023/10/30 03:47:37;;;;;;;4.93;1.10;;;;;;;;;;5039655;28;20483;-70
2023/10/30 03:50:06;;;;;;;2.38;0.90;;;;;;;;;;5045426;28;20483;-69
2023/10/30 03:52:41;;;;;;;3.20;1.00;;;;;;;;;;5039283;28;20435;-70
2023/10/30 03:55:08;;;;;;;2.60;0.90;;;;;;;;;;5040399;28;20432;-69
2023/10/30 03:57:35;;;;;;;3.63;1.20;;;;;;;;;;5039164;28;20437;-69
2023/10/30 04:00:03;;;;;;;2.97;0.95;;;;;;;;;;5043517;28;20428;-69
2023/10/30 04:02:30;;;;;;;3.15;0.90;;;;;;;;;;5043674;28;20445;-69
2023/10/30 04:04:57;;;;;;;2.10;0.80;;;;;;;;;;5042639;28;20425;-70
2023/10/30 04:07:24;;;;;;;1.25;0.80;;;;;;;;;;5038664;28;20516;-69
2023/10/30 04:09:51;;;;;;;3.75;0.80;;;;;;;;;;5039933;28;20439;-70
2023/10/30 04:12:22;;;;;;;2.20;1.10;;;;;;;;;;5045773;28;20433;-70
2023/10/30 04:14:50;;;;;;;4.93;1.10;;;;;;;;;;5042203;28;20920;-70
2023/10/30 04:17:17;;;;;;;2.42;0.90;;;;;;;;;;5040336;28;20449;-69
2023/10/30 04:19:44;;;;;;;5.05;0.88;;;;;;;;;;5044216;28;20526;-70
2023/10/30 04:22:11;;;;;;;4.13;1.10;;;;;;;;;;5043334;28;20468;-70
2023/10/30 04:24:41;;;;;;;3.95;0.90;;;;;;;;;;5045673;28;20536;-70
2023/10/30 04:27:08;;;;;;;3.97;0.88;;;;;;;;;;5042093;28;20437;-70
2023/10/30 04:29:36;;;;;;;5.55;1.10;;;;;;;;;;5042775;28;20425;-70
2023/10/30 04:32:03;;;;;;;2.17;0.90;;;;;;;;;;5041088;28;20444;-69
2023/10/30 04:34:31;;;;;;;3.50;0.80;;;;;;;;;;5041866;28;20484;-70
2023/10/30 04:36:58;;;;;;;3.25;0.93;;;;;;;;;;5041167;28;20524;-70
2023/10/30 04:39:26;;;;;;;4.38;1.23;;;;;;;;;;5039130;28;20436;-70
2023/10/30 04:41:54;;;;;;;2.75;0.90;;;;;;;;;;5042047;28;20431;-70
2023/10/30 04:44:21;;;;;;;2.40;0.77;;;;;;;;;;5040505;28;20423;-70
2023/10/30 04:46:52;;;;;;;4.20;1.00;;;;;;;;;;5043937;28;20437;-69
2023/10/30 04:49:19;;;;;;;2.35;0.80;;;;;;;;;;5042687;28;20926;-69
2023/10/30 04:51:46;;;;;;;3.30;1.08;;;;;;;;;;5043860;28;20436;-69
2023/10/30 04:54:13;;;;;;;4.15;1.17;;;;;;;;;;5041707;28;21144;-69
2023/10/30 04:56:43;;;;;;;4.10;1.10;;;;;;;;;;5042953;28;20428;-69
2023/10/30 04:59:11;;;;;;;2.33;1.23;;;;;;;;;;5040869;28;20429;-69
2023/10/30 05:01:38;;;;;;;4.53;1.45;;;;;;;;;;5042830;28;20433;-69
2023/10/30 05:04:06;;;;;;;2.75;1.10;;;;;;;;;;5040109;28;20433;-69
2023/10/30 05:06:33;;;;;;;2.07;0.90;;;;;;;;;;5041245;28;20483;-69
2023/10/30 05:09:00;;;;;;;4.57;0.90;;;;;;;;;;5043950;28;20830;-70
2023/10/30 05:11:28;;;;;;;3.33;0.90;;;;;;;;;;5042998;28;21041;-70
2023/10/30 05:13:55;;;;;;;4.10;1.30;;;;;;;;;;5040071;28;20947;-70
2023/10/30 05:16:22;;;;;;;2.72;0.80;;;;;;;;;;5039745;28;20437;-71
2023/10/30 05:18:50;;;;;;;2.80;0.90;;;;;;;;;;5042946;28;20433;-70
2023/10/30 05:21:17;;;;;;;2.40;0.73;;;;;;;;;;5040684;28;20429;-70
2023/10/30 05:23:44;;;;;;;4.60;1.10;;;;;;;;;;5039805;28;20519;-71
2023/10/30 05:26:11;;;;;;;5.25;1.10;;;;;;;;;;5048077;28;20433;-72
2023/10/30 05:28:38;;;;;;;2.08;0.75;;;;;;;;;;5054930;28;20521;-70
2023/10/30 05:31:06;;;;;;;1.75;0.63;;;;;;;;;;5039275;28;20432;-70
2023/10/30 05:33:39;;;;;;;2.85;0.60;;;;;;;;;;5039378;28;20927;-70
2023/10/30 05:36:06;;;;;;;3.63;0.90;;;;;;;;;;5041339;28;20437;-70
2023/10/30 05:38:34;;;;;;;3.53;0.88;;;;;;;;;;5041696;28;20508;-70
2023/10/30 05:41:01;;;;;;;3.08;0.73;;;;;;;;;;5043055;28;20463;-70
2023/10/30 05:43:28;;;;;;;3.17;0.90;;;;;;;;;;5043074;28;20520;-73
2023/10/30 05:45:56;;;;;;;4.50;0.80;;;;;;;;;;5039434;28;20425;-70
2023/10/30 05:48:23;;;;;;;3.63;1.00;;;;;;;;;;5035821;28;20909;-71
2023/10/30 05:50:50;;;;;;;2.72;0.90;;;;;;;;;;5035021;28;20904;-71
2023/10/30 05:53:20;;;;;;;3.47;0.90;;;;;;;;;;5040538;28;20967;-71
2023/10/30 05:55:47;;;;;;;2.78;0.90;;;;;;;;;;5036420;28;20478;-71
2023/10/30 05:58:14;;;;;;;4.35;1.02;;;;;;;;;;5036671;28;20485;-70
2023/10/30 06:00:43;;;;;;;2.67;0.70;;;;;;;;;;5044112;28;20425;-71
2023/10/30 06:03:10;;;;;;;2.35;0.80;;;;;;;;;;5041938;28;20815;-71
2023/10/30 06:05:37;;;;;;;2.10;0.90;;;;;;;;;;5041528;28;20827;-70
2023/10/30 06:08:05;;;;;;;2.58;1.15;;;;;;;;;;5041935;28;20450;-70
2023/10/30 06:10:32;;;;;;;5.10;1.23;;;;;;;;;;5043437;28;20453;-72
2023/10/30 06:13:02;;;;;;;3.28;1.33;;;;;;;;;;5032771;28;20471;-70
2023/10/30 06:15:30;;;;;;;3.70;1.30;;;;;;;;;;5036469;28;20441;-70
2023/10/30 06:17:57;;;;;;;1.90;1.10;;;;;;;;;;5041777;28;20432;-70
2023/10/30 06:20:25;;;;;;;2.05;1.33;;;;;;;;;;5040326;28;20511;-71
2023/10/30 06:22:57;;;;;;;3.47;1.40;;;;;;;;;;5041847;28;20706;-71
2023/10/30 06:25:24;;;;;;;1.63;1.20;;;;;;;;;;5046341;28;20497;-71
2023/10/30 06:27:53;;;;;;;2.85;1.60;;;;;;;;;;5041239;28;20437;-71
2023/10/30 06:30:23;;;;;;;3.22;1.30;;;;;;;;;;5041057;28;20428;-72
2023/10/30 06:32:50;;;;;;;2.50;1.15;;;;;;;;;;5041771;28;20911;-72
2023/10/30 06:35:18;;;;;;;2.30;1.03;;;;;;;;;;5043174;28;20462;-72
2023/10/30 06:37:45;;;;;;;3.17;1.30;;;;;;;;;;5043721;28;20490;-72
2023/10/30 06:40:12;;;;;;;1.98;1.00;;;;;;;;;;5041554;28;20529;-73
2023/10/30 06:42:40;;;;;;;1.83;0.93;;;;;;;;;;5036417;28;20448;-73
2023/10/30 06:45:08;;;;;;;2.70;1.13;;;;;;;;;;5046394;28;20433;-72
2023/10/30 06:47:35;;;;;;;1.50;0.90;;;;;;;;;;5043241;28;20427;-72
2023/10/30 06:50:02;;;;;;;1.88;1.05;;;;;;;;;;5039684;28;20942;-72
2023/10/30 06:52:29;;;;;;;3.50;1.60;;;;;;;;;;5040124;28;20466;-72
2023/10/30 06:54:57;;;;;;;2.10;0.90;;;;;;;;;;5041847;28;20911;-72
2023/10/30 06:57:28;;;;;;;2.40;0.90;;;;;;;;;;5044922;28;20429;-72
2023/10/30 06:59:57;;;;;;;2.35;1.00;;;;;;;;;;5044519;28;20437;-71
2023/10/30 07:02:26;;;;;;;2.35;0.80;;;;;;;;;;5039237;28;20987;-71
2023/10/30 07:04:54;;;;;;;2.13;0.95;;;;;;;;;;5036679;28;20438;-71
2023/10/30 07:07:21;;;;;;;2.30;0.90;;;;;;;;;;5033759;28;20802;-71
2023/10/30 07:09:50;;;;;;;1.35;0.73;;;;;;;;;;5040553;28;20844;-71
2023/10/30 07:12:17;;;;;;;1.30;0.70;;;;;;;;;;5052807;28;20437;-71
2023/10/30 07:14:44;;;;;;;1.70;0.85;;;;;;;;;;5042380;28;20425;-70
2023/10/30 07:17:12;;;;;;;1.80;0.77;;;;;;;;;;5042222;28;20486;-70
2023/10/30 07:19:39;;;;;;;3.88;0.88;;;;;;;;;;5039545;28;20547;-72
2023/10/30 07:22:07;;;;;;;1.75;1.10;;;;;;;;;;5044315;28;20458;-71
2023/10/30 07:24:34;;;;;;;1.70;0.90;;;;;;;;;;5040396;28;20581;-72
2023/10/30 07:27:01;;;;;;;1.23;0.80;;;;;;;;;;5039893;28;20424;-71
2023/10/30 07:29:28;;;;;;;1.58;0.95;;;;;;;;;;5037846;28;20528;-72
2023/10/30 07:31:56;;;;;;;1.20;1.10;;;;;;;;;;5036317;28;20918;-72
2023/10/30 07:34:23;;;;;;;1.58;0.85;;;;;;;;;;5043804;28;20446;-72
2023/10/30 07:36:50;;;;;;;1.50;0.90;;;;;;;;;;5044287;28;20958;-71
2023/10/30 07:39:17;;;;;;;0.80;0.80;;;;;;;;;;5042419;28;20433;-72
2023/10/30 07:41:45;;;;;;;1.50;0.93;;;;;;;;;;5041270;28;20436;-71
2023/10/30 07:44:12;;;;;;;1.90;0.97;;;;;;;;;;5046711;28;20433;-72
2023/10/30 07:46:39;;;;;;;3.90;1.30;;;;;;;;;;5042877;28;20843;-71
2023/10/30 07:49:07;;;;;;;2.13;1.23;;;;;;;;;;5045416;28;20451;-71
2023/10/30 07:51:38;;;;;;;3.63;1.27;;;;;;;;;;5043081;28;21367;-71
2023/10/30 07:54:06;;;;;;;3.03;1.48;;;;;;;;;;5039617;28;20433;-71
2023/10/30 07:56:33;;;;;;;2.05;1.48;;;;;;;;;;5041157;28;20429;-71
2023/10/30 07:59:00;;;;;;;2.13;1.60;;;;;;;;;;5041082;28;20467;-71
2023/10/30 08:01:27;;;;;;;5.75;1.83;;;;;;;;;;5044219;28;20999;-71
2023/10/30 08:03:55;;;;;;;2.60;1.70;;;;;;;;;;5043742;28;20479;-71
2023/10/30 08:06:24;;;;;;;3.35;1.73;;;;;;;;;;5044974;28;20437;-71
2023/10/30 08:08:52;;;;;;;3.03;1.90;;;;;;;;;;5047462;28;20611;-71
2023/10/30 08:11:19;;;;;;;1.75;1.60;;;;;;;;;;5036560;28;20435;-72
2023/10/30 08:13:46;;;;;;;2.80;1.48;;;;;;;;;;5045025;28;20510;-73
2023/10/30 08:16:14;;;;;;;2.75;1.58;;;;;;;;;;5039944;28;20433;-72
2023/10/30 08:18:41;;;;;;;1.70;1.40;;;;;;;;;;5043191;28;20425;-71
2023/10/30 08:21:08;;;;;;;2.63;1.30;;;;;;;;;;5042132;28;21156;-70
2023/10/30 08:23:37;;;;;;;1.42;1.20;;;;;;;;;;5033230;28;20508;-71
2023/10/30 08:26:05;;;;;;;2.55;1.35;;;;;;;;;;5038826;28;20433;-71
2023/10/30 08:28:33;;;;;;;1.55;1.20;;;;;;;;;;5037703;28;20433;-71
2023/10/30 08:31:00;;;;;;;3.00;1.30;;;;;;;;;;5036905;28;20428;-72
2023/10/30 08:33:31;;;;;;;2.10;1.00;;;;;;;;;;5046027;28;20834;-73
2023/10/30 08:36:01;;;;;;;2.67;0.80;;;;;;;;;;5042349;28;20440;-73
2023/10/30 08:38:28;;;;;;;1.45;0.90;;;;;;;;;;5032409;28;20433;-71
2023/10/30 08:40:55;;;;;;;1.30;0.97;;;;;;;;;;5042014;28;20490;-71
2023/10/30 08:43:22;;;;;;;2.30;1.00;;;;;;;;;;5043659;28;20444;-72
2023/10/30 08:45:49;;;;;;;2.03;1.13;;;;;;;;;;5036340;28;20457;-72
2023/10/30 08:48:20;;;;;;;1.20;0.80;;;;;;;;;;5042930;28;20461;-71
2023/10/30 08:50:47;;;;;;;1.13;1.00;;;;;;;;;;5038506;28;20426;-72
2023/10/30 08:53:15;;;;;;;0.80;0.80;;;;;;;;;;5039980;28;20440;-72
2023/10/30 08:55:42;;;;;;;1.88;0.82;;;;;;;;;;5039079;28;20496;-72
2023/10/30 08:58:09;;;;;;;1.10;0.77;;;;;;;;;;5042047;28;20436;-72
2023/10/30 09:00:37;;;;;;;1.45;0.70;;;;;;;;;;5037753;28;20441;-72
2023/10/30 09:03:04;;;;;;;0.70;0.60;;;;;;;;;;5039620;28;20434;-72
2023/10/30 09:05:32;;;;;;;0.93;0.70;;;;;;;;;;5039551;28;20890;-72
2023/10/30 09:08:00;;;;;;;1.27;0.70;;;;;;;;;;5041253;28;20419;-72
2023/10/30 09:10:32;;;;;;;4.28;3.90;;;;;;;;;;5039308;28;20463;-72
2023/10/30 09:12:59;;;;;;;2.03;1.30;;;;;;;;;;5040592;28;20455;-73
2023/10/30 09:15:27;;;;;;;0.77;0.77;;;;;;;;;;5041439;28;20946;-73
2023/10/30 09:17:54;;;;;;;0.90;0.80;;;;;;;;;;5043433;28;20437;-72
2023/10/30 09:20:22;;;;;;;0.63;0.63;;;;;;;;;;5041636;28;20439;-72
2023/10/30 09:22:50;;;;;;;1.10;0.90;;;;;;;;;;5043780;28;20429;-72
2023/10/30 09:25:17;;;;;;;0.70;0.60;;;;;;;;;;5038842;28;20426;-72
2023/10/30 09:27:49;;;;;;;2.10;1.00;;;;;;;;;;5041458;28;20749;-72
2023/10/30 09:30:18;;;;;;;2.03;0.60;;;;;;;;;;5038372;28;20427;-72
2023/10/30 09:32:46;;;;;;;2.40;0.90;;;;;;;;;;5040123;28;20496;-72
2023/10/30 09:35:14;;;;;;;1.27;1.10;;;;;;;;;;5043768;28;20441;-72
2023/10/30 09:37:41;;;;;;;2.28;0.90;;;;;;;;;;5043233;28;20517;-72
2023/10/30 09:40:08;;;;;;;1.10;0.90;;;;;;;;;;5037284;28;22127;-72
2023/10/30 09:42:36;;;;;;;1.50;0.98;;;;;;;;;;5038921;28;20995;-72
2023/10/30 09:45:06;;;;;;;0.75;0.73;;;;;;;;;;5042586;28;20432;-71
2023/10/30 09:47:33;;;;;;;1.88;0.70;;;;;;;;;;5043585;28;20453;-71
2023/10/30 09:50:01;;;;;;;1.33;0.70;;;;;;;;;;5040834;28;20428;-71
2023/10/30 09:52:32;;;;;;;0.80;0.80;;;;;;;;;;5043648;28;20800;-71
2023/10/30 09:54:59;;;;;;;1.35;0.80;;;;;;;;;;5039925;28;20429;-71
2023/10/30 09:57:27;;;;;;;0.80;0.80;;;;;;;;;;5034805;28;20433;-71
2023/10/30 09:59:56;;;;;;;1.15;0.73;;;;;;;;;;5040901;28;20461;-71
2023/10/30 10:02:24;;;;;;;1.30;0.67;;;;;;;;;;5045645;28;20954;-71
2023/10/30 10:04:54;;;;;;;1.55;0.45;;;;;;;;;;5040021;28;20454;-71
2023/10/30 10:07:21;;;;;;;1.50;0.70;;;;;;;;;;5031910;28;20518;-71
2023/10/30 10:10:00;;;;;;;0.50;0.50;;;;;;;;;;5057687;28;20433;-71
2023/10/30 10:12:29;;;;;;;1.05;0.57;;;;;;;;;;5044630;28;20425;-70
2023/10/30 10:14:57;;;;;;;2.33;0.60;;;;;;;;;;5040104;28;20430;-71
2023/10/30 10:17:24;;;;;;;0.80;0.55;;;;;;;;;;5041791;28;20430;-71
2023/10/30 10:19:52;;;;;;;1.48;0.60;;;;;;;;;;5041692;28;20457;-71
2023/10/30 10:22:30;;;;;;;2.70;0.70;;;;;;;;;;5041649;28;20456;-71
2023/10/30 10:24:57;;;;;;;1.08;0.65;;;;;;;;;;5042365;28;20455;-71
2023/10/30 10:27:24;;;;;;;1.00;0.70;;;;;;;;;;5041407;28;20439;-70
2023/10/30 10:29:55;;;;;;;0.65;0.43;;;;;;;;;;5034991;28;20491;-71
2023/10/30 10:32:26;;;;;;;2.30;0.40;;;;;;;;;;5043623;28;20433;-71
2023/10/30 10:34:54;;;;;;;0.80;0.40;;;;;;;;;;5037592;28;20520;-70
2023/10/30 10:37:21;;;;;;;1.00;0.50;;;;;;;;;;5040411;28;20458;-71
2023/10/30 10:39:49;;;;;;;0.60;0.50;;;;;;;;;;5044262;28;20513;-70
2023/10/30 10:42:18;;;;;;;0.53;0.50;;;;;;;;;;5042496;28;20768;-70
2023/10/30 10:44:50;;;;;;;0.60;0.40;;;;;;;;;;5039901;28;20461;-70
2023/10/30 10:47:21;;;;;;;0.68;0.57;;;;;;;;;;5039623;28;20525;-70
2023/10/30 10:49:48;;;;;;;0.90;0.50;;;;;;;;;;5045049;28;20429;-70
2023/10/30 10:52:17;;;;;;;0.90;0.50;;;;;;;;;;5041920;28;20524;-70
2023/10/30 10:54:47;;;;;;;0.50;0.50;;;;;;;;;;5047523;28;20835;-70
2023/10/30 10:57:16;;;;;;;0.68;0.40;;;;;;;;;;5039936;28;20431;-68
2023/10/30 10:59:47;;;;;;;0.30;0.30;;;;;;;;;;5040915;28;20441;-68
2023/10/30 11:02:21;;;;;;;0.40;0.40;;;;;;;;;;5044469;28;20433;-68
2023/10/30 11:04:50;;;;;;;0.95;0.40;;;;;;;;;;5044054;28;20508;-68
2023/10/30 11:07:23;;;;;;;0.70;0.40;;;;;;;;;;5042564;28;20533;-69
2023/10/30 11:09:52;;;;;;;1.30;0.50;;;;;;;;;;5038789;28;20441;-68
2023/10/30 11:12:28;;;;;;;0.40;0.40;;;;;;;;;;5034365;28;20437;-69
2023/10/30 11:15:07;;;;;;;0.50;0.50;;;;;;;;;;5037697;28;20433;-68
2023/10/30 11:17:34;;;;;;;0.47;0.47;;;;;;;;;;5038950;28;20873;-68
2023/10/30 11:20:03;;;;;;;1.30;0.50;;;;;;;;;;5035488;28;21088;-69
2023/10/30 11:22:40;;;;;;;1.90;0.32;;;;;;;;;;5045311;28;20494;-69
2023/10/30 11:25:34;;;;;;;1.60;0.50;;;;;;;;;;5040086;28;20421;-69
2023/10/30 11:28:07;;;;;;;1.00;0.52;;;;;;;;;;5001955;28;20499;-69
2023/10/30 11:30:45;;;;;;;0.82;0.32;;;;;;;;;;5005756;28;20858;-69
2023/10/30 11:33:21;;;;;;;0.55;0.40;;;;;;;;;;4996539;28;20515;-69
2023/10/30 11:36:12;;;;;;;0.80;0.38;;;;;;;;;;5005415;28;20482;-69
2023/10/30 11:38:57;;;;;;;0.30;0.30;;;;;;;;;;5006254;28;20428;-69
2023/10/30 11:41:25;;;;;;;0.40;0.40;;;;;;;;;;5003776;28;20480;-69
2023/10/30 11:43:52;;;;;;;0.43;0.43;;;;;;;;;;5000128;28;20779;-68
2023/10/30 11:46:21;;;;;;;1.52;0.40;;;;;;;;;;5000712;28;20507;-69
2023/10/30 11:48:48;;;;;;;0.40;0.40;;;;;;;;;;5006030;28;20492;-69
2023/10/30 11:51:16;;;;;;;0.73;0.50;;;;;;;;;;5003683;28;20440;-68
2023/10/30 11:53:43;;;;;;;0.85;0.50;;;;;;;;;;4986177;28;20435;-68
2023/10/30 11:56:13;;;;;;;0.50;0.50;;;;;;;;;;5001201;28;20515;-68
2023/10/30 11:58:40;;;;;;;0.32;0.30;;;;;;;;;;5001016;28;20440;-69
2023/10/30 12:01:09;;;;;;;0.32;0.32;;;;;;;;;;4997405;28;20468;-69
2023/10/30 12:03:36;;;;;;;0.53;0.47;;;;;;;;;;4998952;28;20432;-69
2023/10/30 12:06:03;;;;;;;0.50;0.50;;;;;;;;;;5031680;28;20970;-68
2023/10/30 12:08:33;;;;;;;0.40;0.40;;;;;;;;;;5042807;28;20503;-68
2023/10/30 12:11:06;;;;;;;0.83;0.70;;;;;;;;;;5039392;28;20491;-68
2023/10/30 12:13:33;;;;;;;1.50;0.60;;;;;;;;;;5040641;28;20440;-68
2023/10/30 12:16:03;;;;;;;0.80;0.80;;;;;;;;;;5041150;28;20798;-68
2023/10/30 12:18:30;;;;;;;2.00;0.90;;;;;;;;;;5038063;28;20431;-69
2023/10/30 12:20:58;;;;;;;2.35;0.90;;;;;;;;;;5039993;28;20433;-69
2023/10/30 12:23:25;;;;;;;1.10;0.63;;;;;;;;;;5033948;28;20433;-68
2023/10/30 12:26:02;;;;;;;0.77;0.77;;;;;;;;;;5042872;28;20456;-68
2023/10/30 12:28:36;;;;;;;2.60;0.70;;;;;;;;;;5039844;28;20438;-68
2023/10/30 12:31:36;;;;;;;0.85;0.60;;;;;;;;;;5043393;28;20469;-68
2023/10/30 12:34:18;;;;;;;0.50;0.40;;;;;;;;;;5019309;28;20454;-68
2023/10/30 12:36:48;;;;;;;1.50;0.80;;;;;;;;;;5009295;28;20439;-68
2023/10/30 12:39:17;;;;;;;1.15;0.40;;;;;;;;;;5021209;28;20442;-71
2023/10/30 12:41:51;;;;;;;2.00;0.90;;;;;;;;;;5021910;28;20558;-68
2023/10/30 12:44:19;;;;;;;1.97;1.13;;;;;;;;;;5018364;28;20801;-68
2023/10/30 12:46:48;;;;;;;1.92;0.88;;;;;;;;;;5016063;28;20658;-68
2023/10/30 12:49:15;;;;;;;4.10;1.13;;;;;;;;;;5021387;28;20452;-68
2023/10/30 12:51:43;;;;;;;5.13;1.60;;;;;;;;;;5018150;28;20605;-68
2023/10/30 12:54:10;;;;;;;2.30;1.10;;;;;;;;;;5022102;28;20439;-68
2023/10/30 12:56:37;;;;;;;0.95;0.68;;;;;;;;;;5016513;28;20909;-68
2023/10/30 12:59:07;;;;;;;3.28;1.20;;;;;;;;;;5013866;28;20439;-68
2023/10/30 13:01:35;;;;;;;4.60;1.60;;;;;;;;;;5021126;28;20471;-69
2023/10/30 13:04:22;;;;;;;2.42;0.90;;;;;;;;;;5021292;28;20498;-68
2023/10/30 13:06:54;;;;;;;2.03;0.77;;;;;;;;;;5001875;28;20431;-68
2023/10/30 13:09:21;;;;;;;2.30;0.70;;;;;;;;;;5025613;28;20436;-68
2023/10/30 13:11:48;;;;;;;1.52;0.65;;;;;;;;;;5038958;28;20430;-68
2023/10/30 13:14:18;;;;;;;2.60;1.20;;;;;;;;;;5037012;28;20433;-68
2023/10/30 13:16:46;;;;;;;3.60;1.35;;;;;;;;;;5041281;28;20519;-68
2023/10/30 13:19:13;;;;;;;3.05;1.17;;;;;;;;;;5038339;28;21208;-68
2023/10/30 13:21:40;;;;;;;0.95;0.82;;;;;;;;;;5040019;28;20509;-68
2023/10/30 13:24:08;;;;;;;1.17;0.60;;;;;;;;;;5036880;28;20459;-68
2023/10/30 13:26:35;;;;;;;2.47;0.68;;;;;;;;;;5041988;28;20471;-68
2023/10/30 13:29:02;;;;;;;0.50;0.50;;;;;;;;;;5037123;28;21017;-68
2023/10/30 13:31:30;;;;;;;0.70;0.70;;;;;;;;;;5042892;28;20429;-68
2023/10/30 13:33:57;;;;;;;1.90;0.50;;;;;;;;;;5040163;28;20440;-68
2023/10/30 13:36:24;;;;;;;1.38;0.63;;;;;;;;;;5038130;28;20847;-68
2023/10/30 13:38:51;;;;;;;1.45;0.63;;;;;;;;;;5039327;28;20522;-68
2023/10/30 13:41:19;;;;;;;0.73;0.73;;;;;;;;;;5041275;28;20887;-68
2023/10/30 13:43:46;;;;;;;0.60;0.60;;;;;;;;;;5036011;28;20437;-68
2023/10/30 13:46:13;;;;;;;0.60;0.60;;;;;;;;;;5035962;28;20433;-68
2023/10/30 13:48:41;;;;;;;0.70;0.70;;;;;;;;;;5041018;28;21044;-68
2023/10/30 13:51:09;;;;;;;0.90;0.70;;;;;;;;;;5034961;28;20508;-68
2023/10/30 13:53:39;;;;;;;0.50;0.50;;;;;;;;;;5046335;28;20477;-68
2023/10/30 13:56:06;;;;;;;1.57;0.70;;;;;;;;;;5039122;28;20891;-68
2023/10/30 13:58:33;;;;;;;1.75;0.70;;;;;;;;;;5041532;28;20846;-68
2023/10/30 14:01:00;;;;;;;1.00;1.00;;;;;;;;;;5035020;28;20435;-67
2023/10/30 14:03:28;;;;;;;2.13;0.80;;;;;;;;;;5038290;28;20440;-68
2023/10/30 14:05:55;;;;;;;0.75;0.70;;;;;;;;;;5036775;28;20479;-68
2023/10/30 14:08:22;;;;;;;0.80;0.80;;;;;;;;;;5037019;28;20434;-68
2023/10/30 14:10:50;;;;;;;2.45;0.70;;;;;;;;;;5031885;28;20505;-68
2023/10/30 14:13:17;;;;;;;1.17;0.45;;;;;;;;;;5035837;28;20433;-67
2023/10/30 14:15:45;;;;;;;1.80;0.70;;;;;;;;;;5043142;28;20429;-68
2023/10/30 14:18:13;;;;;;;1.60;1.10;;;;;;;;;;5032747;28;21071;-68
2023/10/30 14:20:46;;;;;;;4.28;0.90;;;;;;;;;;5038322;28;20507;-68
2023/10/30 14:23:15;;;;;;;0.90;0.70;;;;;;;;;;5035897;28;20440;-69
2023/10/30 14:25:42;;;;;;;4.25;0.80;;;;;;;;;;5039912;28;20435;-68
2023/10/30 14:28:09;;;;;;;1.90;0.77;;;;;;;;;;5039799;28;20803;-68
2023/10/30 14:30:37;;;;;;;1.20;0.80;;;;;;;;;;5032599;28;20528;-68
2023/10/30 14:33:04;;;;;;;1.70;0.90;;;;;;;;;;5030820;28;20427;-68
2023/10/30 14:35:34;;;;;;;1.45;0.88;;;;;;;;;;5033200;28;20437;-68
2023/10/30 14:38:01;;;;;;;1.98;0.98;;;;;;;;;;5034421;28;20458;-68
2023/10/30 14:40:31;;;;;;;1.15;1.05;;;;;;;;;;5037433;28;20436;-69
2023/10/30 14:42:58;;;;;;;1.33;1.08;;;;;;;;;;5045932;28;20429;-68
2023/10/30 14:45:28;;;;;;;0.90;0.90;;;;;;;;;;5032994;28;20496;-68
2023/10/30 14:47:56;;;;;;;2.08;1.02;;;;;;;;;;5043097;28;20427;-68
2023/10/30 14:50:25;;;;;;;1.35;1.10;;;;;;;;;;5043481;28;20494;-68